sensor_id;sensor_type;location;lat;lon;timestamp;temperature;humidity
480;DHT22;226;48.606;9.096;2023-02-01T00:00:53;6.10;85.40
480;DHT22;226;48.606;9.096;2023-02-01T00:03:23;3.50;82.30
480;DHT22;226;48.606;9.096;2023-02-01T00:06:00;3.80;83.70
480;DHT22;226;48.606;9.096;2023-02-01T00:08:29;3.50;83.00
480;DHT22;226;48.606;9.096;2023-02-01T00:11:01;3.70;82.60
480;DHT22;226;48.606;9.096;2023-02-01T00:13:30;3.50;82.10
480;DHT22;226;48.606;9.096;2023-02-01T00:16:05;5.70;84.70
480;DHT22;226;48.606;9.096;2023-02-01T00:18:35;3.60;84.30
480;DHT22;226;48.606;9.096;2023-02-01T00:21:04;3.70;84.80
480;DHT22;226;48.606;9.096;2023-02-01T00:23:32;3.60;84.60
480;DHT22;226;48.606;9.096;2023-02-01T00:26:01;3.50;84.90
480;DHT22;226;48.606;9.096;2023-02-01T00:28:29;4.30;86.50
480;DHT22;226;48.606;9.096;2023-02-01T00:30:58;3.90;84.90
480;DHT22;226;48.606;9.096;2023-02-01T00:33:26;3.60;85.30
480;DHT22;226;48.606;9.096;2023-02-01T00:35:58;3.70;84.00
480;DHT22;226;48.606;9.096;2023-02-01T00:38:26;3.90;85.30
480;DHT22;226;48.606;9.096;2023-02-01T00:41:01;3.90;84.20
480;DHT22;226;48.606;9.096;2023-02-01T00:43:30;3.60;81.60
480;DHT22;226;48.606;9.096;2023-02-01T00:45:58;4.50;82.90
480;DHT22;226;48.606;9.096;2023-02-01T00:48:27;3.40;82.30
480;DHT22;226;48.606;9.096;2023-02-01T00:51:00;3.90;83.90
480;DHT22;226;48.606;9.096;2023-02-01T00:53:28;3.90;85.00
480;DHT22;226;48.606;9.096;2023-02-01T00:55:57;3.50;82.40
480;DHT22;226;48.606;9.096;2023-02-01T00:58:26;3.90;83.80
480;DHT22;226;48.606;9.096;2023-02-01T01:01:04;3.50;80.60
480;DHT22;226;48.606;9.096;2023-02-01T01:03:34;3.70;81.60
480;DHT22;226;48.606;9.096;2023-02-01T01:06:05;4.90;83.40
480;DHT22;226;48.606;9.096;2023-02-01T01:08:34;4.90;83.10
480;DHT22;226;48.606;9.096;2023-02-01T01:11:04;3.50;79.80
480;DHT22;226;48.606;9.096;2023-02-01T01:13:33;3.60;81.60
480;DHT22;226;48.606;9.096;2023-02-01T01:16:01;3.80;81.90
480;DHT22;226;48.606;9.096;2023-02-01T01:18:31;3.90;82.80
480;DHT22;226;48.606;9.096;2023-02-01T01:21:00;3.50;81.40
480;DHT22;226;48.606;9.096;2023-02-01T01:23:30;3.60;81.80
480;DHT22;226;48.606;9.096;2023-02-01T01:25:58;4.20;82.50
480;DHT22;226;48.606;9.096;2023-02-01T01:28:26;3.80;82.20
480;DHT22;226;48.606;9.096;2023-02-01T01:30:55;3.60;80.40
480;DHT22;226;48.606;9.096;2023-02-01T01:33:23;4.30;82.00
480;DHT22;226;48.606;9.096;2023-02-01T01:35:51;4.20;82.40
480;DHT22;226;48.606;9.096;2023-02-01T01:38:19;3.80;81.90
480;DHT22;226;48.606;9.096;2023-02-01T01:40:48;3.60;81.40
480;DHT22;226;48.606;9.096;2023-02-01T01:43:19;3.90;81.90
480;DHT22;226;48.606;9.096;2023-02-01T01:45:49;4.00;81.60
480;DHT22;226;48.606;9.096;2023-02-01T01:48:22;4.20;80.50
480;DHT22;226;48.606;9.096;2023-02-01T01:50:57;4.00;78.90
480;DHT22;226;48.606;9.096;2023-02-01T01:53:30;4.10;78.90
480;DHT22;226;48.606;9.096;2023-02-01T01:56:01;4.20;79.90
480;DHT22;226;48.606;9.096;2023-02-01T01:58:31;3.90;78.70
480;DHT22;226;48.606;9.096;2023-02-01T02:01:00;4.10;79.50
480;DHT22;226;48.606;9.096;2023-02-01T02:03:32;4.40;80.30
480;DHT22;226;48.606;9.096;2023-02-01T02:06:03;4.60;78.80
480;DHT22;226;48.606;9.096;2023-02-01T02:08:32;4.00;77.20
480;DHT22;226;48.606;9.096;2023-02-01T02:11:01;3.90;77.80
480;DHT22;226;48.606;9.096;2023-02-01T02:13:32;4.20;77.50
480;DHT22;226;48.606;9.096;2023-02-01T02:16:22;4.40;79.10
480;DHT22;226;48.606;9.096;2023-02-01T02:19:01;4.60;79.30
480;DHT22;226;48.606;9.096;2023-02-01T02:21:49;4.00;77.60
480;DHT22;226;48.606;9.096;2023-02-01T02:24:49;4.10;76.70
480;DHT22;226;48.606;9.096;2023-02-01T02:27:30;4.30;77.10
480;DHT22;226;48.606;9.096;2023-02-01T02:30:36;4.30;77.40
480;DHT22;226;48.606;9.096;2023-02-01T02:33:23;4.10;72.70
480;DHT22;226;48.606;9.096;2023-02-01T02:36:01;4.30;76.50
480;DHT22;226;48.606;9.096;2023-02-01T02:38:35;4.30;75.60
480;DHT22;226;48.606;9.096;2023-02-01T02:41:14;4.70;76.20
480;DHT22;226;48.606;9.096;2023-02-01T02:44:10;4.40;76.50
480;DHT22;226;48.606;9.096;2023-02-01T02:47:05;4.20;77.30
480;DHT22;226;48.606;9.096;2023-02-01T02:49:58;4.10;93.70
480;DHT22;226;48.606;9.096;2023-02-01T02:52:54;3.60;77.00
480;DHT22;226;48.606;9.096;2023-02-01T02:55:44;4.50;77.50
480;DHT22;226;48.606;9.096;2023-02-01T02:58:13;5.10;78.50
480;DHT22;226;48.606;9.096;2023-02-01T03:01:01;4.80;78.50
480;DHT22;226;48.606;9.096;2023-02-01T03:03:48;4.20;79.10
480;DHT22;226;48.606;9.096;2023-02-01T03:06:37;4.10;79.30
480;DHT22;226;48.606;9.096;2023-02-01T03:09:11;4.20;80.50
480;DHT22;226;48.606;9.096;2023-02-01T03:11:44;4.20;81.20
480;DHT22;226;48.606;9.096;2023-02-01T03:14:30;4.20;82.00
480;DHT22;226;48.606;9.096;2023-02-01T03:17:05;4.20;80.40
480;DHT22;226;48.606;9.096;2023-02-01T03:19:39;4.10;80.30
480;DHT22;226;48.606;9.096;2023-02-01T03:22:14;4.10;81.70
480;DHT22;226;48.606;9.096;2023-02-01T03:24:45;3.90;95.60
480;DHT22;226;48.606;9.096;2023-02-01T03:27:17;5.30;81.40
480;DHT22;226;48.606;9.096;2023-02-01T03:29:51;4.00;94.30
480;DHT22;226;48.606;9.096;2023-02-01T03:32:20;4.20;80.20
480;DHT22;226;48.606;9.096;2023-02-01T03:34:48;4.30;78.50
480;DHT22;226;48.606;9.096;2023-02-01T03:37:22;4.40;79.00
480;DHT22;226;48.606;9.096;2023-02-01T03:39:54;4.00;94.50
480;DHT22;226;48.606;9.096;2023-02-01T03:42:28;4.00;79.20
480;DHT22;226;48.606;9.096;2023-02-01T03:45:03;4.40;79.60
480;DHT22;226;48.606;9.096;2023-02-01T03:47:36;4.10;79.10
480;DHT22;226;48.606;9.096;2023-02-01T03:50:08;3.80;78.10
480;DHT22;226;48.606;9.096;2023-02-01T03:52:40;4.20;77.40
480;DHT22;226;48.606;9.096;2023-02-01T03:55:10;4.00;79.80
480;DHT22;226;48.606;9.096;2023-02-01T03:57:44;4.10;79.90
480;DHT22;226;48.606;9.096;2023-02-01T04:00:18;4.40;79.10
480;DHT22;226;48.606;9.096;2023-02-01T04:02:47;4.30;78.20
480;DHT22;226;48.606;9.096;2023-02-01T04:05:15;4.30;78.30
480;DHT22;226;48.606;9.096;2023-02-01T04:07:44;4.70;77.50
480;DHT22;226;48.606;9.096;2023-02-01T04:10:13;4.20;77.10
480;DHT22;226;48.606;9.096;2023-02-01T04:12:43;4.40;77.50
480;DHT22;226;48.606;9.096;2023-02-01T04:15:11;4.10;76.70
480;DHT22;226;48.606;9.096;2023-02-01T04:17:39;4.30;75.20
480;DHT22;226;48.606;9.096;2023-02-01T04:20:09;4.20;75.40
480;DHT22;226;48.606;9.096;2023-02-01T04:22:37;4.10;74.60
480;DHT22;226;48.606;9.096;2023-02-01T04:25:07;4.90;76.40
480;DHT22;226;48.606;9.096;2023-02-01T04:27:35;4.30;71.80
480;DHT22;226;48.606;9.096;2023-02-01T04:30:04;4.70;73.20
480;DHT22;226;48.606;9.096;2023-02-01T04:32:36;4.00;72.60
480;DHT22;226;48.606;9.096;2023-02-01T04:35:06;5.90;75.90
480;DHT22;226;48.606;9.096;2023-02-01T04:37:34;4.10;74.30
480;DHT22;226;48.606;9.096;2023-02-01T04:40:02;4.00;75.20
480;DHT22;226;48.606;9.096;2023-02-01T04:42:32;4.10;74.60
480;DHT22;226;48.606;9.096;2023-02-01T04:45:00;4.40;74.20
480;DHT22;226;48.606;9.096;2023-02-01T04:47:28;4.30;73.90
480;DHT22;226;48.606;9.096;2023-02-01T04:49:56;4.00;92.10
480;DHT22;226;48.606;9.096;2023-02-01T04:52:24;4.10;72.80
480;DHT22;226;48.606;9.096;2023-02-01T04:54:54;4.10;72.20
480;DHT22;226;48.606;9.096;2023-02-01T04:57:25;4.60;72.70
480;DHT22;226;48.606;9.096;2023-02-01T04:59:55;3.90;91.20
480;DHT22;226;48.606;9.096;2023-02-01T05:02:23;4.40;71.70
480;DHT22;226;48.606;9.096;2023-02-01T05:07:19;4.00;95.50
480;DHT22;226;48.606;9.096;2023-02-01T05:09:47;4.00;94.60
480;DHT22;226;48.606;9.096;2023-02-01T05:12:15;3.90;93.90
480;DHT22;226;48.606;9.096;2023-02-01T05:15:02;3.90;91.70
480;DHT22;226;48.606;9.096;2023-02-01T05:17:30;3.90;93.00
480;DHT22;226;48.606;9.096;2023-02-01T05:22:26;3.90;92.10
480;DHT22;226;48.606;9.096;2023-02-01T05:24:54;3.90;91.80
480;DHT22;226;48.606;9.096;2023-02-01T05:27:22;4.40;92.30
480;DHT22;226;48.606;9.096;2023-02-01T05:29:50;3.90;91.60
480;DHT22;226;48.606;9.096;2023-02-01T05:32:20;3.90;91.90
480;DHT22;226;48.606;9.096;2023-02-01T05:34:49;3.90;92.00
480;DHT22;226;48.606;9.096;2023-02-01T05:37:17;3.90;90.80
480;DHT22;226;48.606;9.096;2023-02-01T05:42:13;3.90;90.50
480;DHT22;226;48.606;9.096;2023-02-01T05:44:41;4.00;90.60
480;DHT22;226;48.606;9.096;2023-02-01T05:47:10;3.90;90.90
480;DHT22;226;48.606;9.096;2023-02-01T05:49:40;4.00;90.60
480;DHT22;226;48.606;9.096;2023-02-01T05:52:08;4.00;90.30
480;DHT22;226;48.606;9.096;2023-02-01T05:54:36;4.30;90.30
480;DHT22;226;48.606;9.096;2023-02-01T05:57:04;4.40;89.20
480;DHT22;226;48.606;9.096;2023-02-01T05:59:32;4.20;89.40
480;DHT22;226;48.606;9.096;2023-02-01T06:02:00;4.10;89.20
480;DHT22;226;48.606;9.096;2023-02-01T06:04:29;4.10;88.30
480;DHT22;226;48.606;9.096;2023-02-01T06:06:58;4.20;88.40
480;DHT22;226;48.606;9.096;2023-02-01T06:09:26;4.10;88.70
480;DHT22;226;48.606;9.096;2023-02-01T06:11:55;4.10;89.40
480;DHT22;226;48.606;9.096;2023-02-01T06:14:23;4.20;89.10
480;DHT22;226;48.606;9.096;2023-02-01T06:16:51;4.30;90.00
480;DHT22;226;48.606;9.096;2023-02-01T06:19:19;4.10;90.10
480;DHT22;226;48.606;9.096;2023-02-01T06:21:47;4.10;89.90
480;DHT22;226;48.606;9.096;2023-02-01T06:26:45;4.00;88.10
480;DHT22;226;48.606;9.096;2023-02-01T06:29:13;4.00;89.80
480;DHT22;226;48.606;9.096;2023-02-01T06:31:41;4.10;90.20
480;DHT22;226;48.606;9.096;2023-02-01T06:34:10;4.00;90.20
480;DHT22;226;48.606;9.096;2023-02-01T06:36:38;4.60;90.90
480;DHT22;226;48.606;9.096;2023-02-01T06:39:06;4.00;90.20
480;DHT22;226;48.606;9.096;2023-02-01T06:41:36;4.00;89.10
480;DHT22;226;48.606;9.096;2023-02-01T06:44:04;4.00;89.90
480;DHT22;226;48.606;9.096;2023-02-01T06:46:32;3.30;90.00
480;DHT22;226;48.606;9.096;2023-02-01T06:49:00;4.00;90.60
480;DHT22;226;48.606;9.096;2023-02-01T06:51:28;4.20;91.00
480;DHT22;226;48.606;9.096;2023-02-01T06:53:57;4.00;91.00
480;DHT22;226;48.606;9.096;2023-02-01T06:56:25;3.40;90.70
480;DHT22;226;48.606;9.096;2023-02-01T06:58:54;3.90;90.80
480;DHT22;226;48.606;9.096;2023-02-01T07:01:22;3.90;91.10
480;DHT22;226;48.606;9.096;2023-02-01T07:03:51;3.90;91.20
480;DHT22;226;48.606;9.096;2023-02-01T07:06:19;3.80;91.30
480;DHT22;226;48.606;9.096;2023-02-01T07:08:47;3.40;91.30
480;DHT22;226;48.606;9.096;2023-02-01T07:13:45;3.80;90.90
480;DHT22;226;48.606;9.096;2023-02-01T07:16:17;3.20;92.10
480;DHT22;226;48.606;9.096;2023-02-01T07:18:46;3.60;92.50
480;DHT22;226;48.606;9.096;2023-02-01T07:21:14;3.90;92.10
480;DHT22;226;48.606;9.096;2023-02-01T07:23:42;3.70;91.80
480;DHT22;226;48.606;9.096;2023-02-01T07:26:12;3.70;91.80
480;DHT22;226;48.606;9.096;2023-02-01T07:28:41;4.20;91.90
480;DHT22;226;48.606;9.096;2023-02-01T07:31:10;3.80;91.70
480;DHT22;226;48.606;9.096;2023-02-01T07:33:41;3.80;91.20
480;DHT22;226;48.606;9.096;2023-02-01T07:36:12;3.80;90.90
480;DHT22;226;48.606;9.096;2023-02-01T07:38:40;3.80;91.10
480;DHT22;226;48.606;9.096;2023-02-01T07:41:09;3.80;91.00
480;DHT22;226;48.606;9.096;2023-02-01T07:43:37;3.50;90.80
480;DHT22;226;48.606;9.096;2023-02-01T07:46:05;3.90;91.00
480;DHT22;226;48.606;9.096;2023-02-01T07:48:34;4.10;91.00
480;DHT22;226;48.606;9.096;2023-02-01T07:51:05;4.30;90.90
480;DHT22;226;48.606;9.096;2023-02-01T07:53:34;4.30;90.60
480;DHT22;226;48.606;9.096;2023-02-01T07:56:03;4.00;90.10
480;DHT22;226;48.606;9.096;2023-02-01T07:58:31;4.00;90.40
480;DHT22;226;48.606;9.096;2023-02-01T08:03:46;4.10;86.10
480;DHT22;226;48.606;9.096;2023-02-01T08:06:16;4.60;89.60
480;DHT22;226;48.606;9.096;2023-02-01T08:08:44;4.40;90.00
480;DHT22;226;48.606;9.096;2023-02-01T08:11:14;4.30;87.50
480;DHT22;226;48.606;9.096;2023-02-01T08:13:42;4.30;87.80
480;DHT22;226;48.606;9.096;2023-02-01T08:16:12;5.10;87.70
480;DHT22;226;48.606;9.096;2023-02-01T08:18:41;4.40;86.70
480;DHT22;226;48.606;9.096;2023-02-01T08:21:11;4.70;86.00
480;DHT22;226;48.606;9.096;2023-02-01T08:23:42;5.20;86.40
480;DHT22;226;48.606;9.096;2023-02-01T08:26:12;4.50;85.60
480;DHT22;226;48.606;9.096;2023-02-01T08:28:43;4.60;84.40
480;DHT22;226;48.606;9.096;2023-02-01T08:31:13;4.60;82.90
480;DHT22;226;48.606;9.096;2023-02-01T08:33:43;4.60;81.70
480;DHT22;226;48.606;9.096;2023-02-01T08:36:11;4.70;82.10
480;DHT22;226;48.606;9.096;2023-02-01T08:38:41;4.60;81.20
480;DHT22;226;48.606;9.096;2023-02-01T08:41:11;5.00;81.00
480;DHT22;226;48.606;9.096;2023-02-01T08:43:40;5.20;81.40
480;DHT22;226;48.606;9.096;2023-02-01T08:46:09;5.00;82.70
480;DHT22;226;48.606;9.096;2023-02-01T08:48:38;4.50;82.10
480;DHT22;226;48.606;9.096;2023-02-01T08:51:08;5.10;83.80
480;DHT22;226;48.606;9.096;2023-02-01T08:53:37;5.30;83.80
480;DHT22;226;48.606;9.096;2023-02-01T08:56:09;4.90;83.10
480;DHT22;226;48.606;9.096;2023-02-01T08:58:37;4.60;80.80
480;DHT22;226;48.606;9.096;2023-02-01T09:01:06;4.60;80.90
480;DHT22;226;48.606;9.096;2023-02-01T09:06:08;4.80;75.30
480;DHT22;226;48.606;9.096;2023-02-01T09:08:38;4.80;79.80
480;DHT22;226;48.606;9.096;2023-02-01T09:11:11;4.80;79.30
480;DHT22;226;48.606;9.096;2023-02-01T09:13:40;4.90;78.70
480;DHT22;226;48.606;9.096;2023-02-01T09:16:08;5.10;79.50
480;DHT22;226;48.606;9.096;2023-02-01T09:18:36;5.20;77.80
480;DHT22;226;48.606;9.096;2023-02-01T09:21:22;4.90;76.00
480;DHT22;226;48.606;9.096;2023-02-01T09:23:50;4.90;75.90
480;DHT22;226;48.606;9.096;2023-02-01T09:26:20;4.80;74.50
480;DHT22;226;48.606;9.096;2023-02-01T09:28:58;4.80;76.70
480;DHT22;226;48.606;9.096;2023-02-01T09:31:26;4.80;75.70
480;DHT22;226;48.606;9.096;2023-02-01T09:33:54;4.70;75.80
480;DHT22;226;48.606;9.096;2023-02-01T09:36:22;4.70;77.10
480;DHT22;226;48.606;9.096;2023-02-01T09:38:51;4.70;76.60
480;DHT22;226;48.606;9.096;2023-02-01T09:41:29;5.10;77.30
480;DHT22;226;48.606;9.096;2023-02-01T09:44:05;4.90;76.60
480;DHT22;226;48.606;9.096;2023-02-01T09:46:35;5.10;76.30
480;DHT22;226;48.606;9.096;2023-02-01T09:49:08;5.10;75.60
480;DHT22;226;48.606;9.096;2023-02-01T09:51:39;5.00;73.90
480;DHT22;226;48.606;9.096;2023-02-01T09:54:14;5.00;72.30
480;DHT22;226;48.606;9.096;2023-02-01T09:56:47;5.00;72.20
480;DHT22;226;48.606;9.096;2023-02-01T09:59:26;5.00;73.40
480;DHT22;226;48.606;9.096;2023-02-01T10:01:57;5.00;73.20
480;DHT22;226;48.606;9.096;2023-02-01T10:04:26;5.10;71.60
480;DHT22;226;48.606;9.096;2023-02-01T10:07:01;5.10;71.60
480;DHT22;226;48.606;9.096;2023-02-01T10:09:42;5.10;71.80
480;DHT22;226;48.606;9.096;2023-02-01T10:12:37;5.20;71.20
480;DHT22;226;48.606;9.096;2023-02-01T10:15:18;5.50;70.50
480;DHT22;226;48.606;9.096;2023-02-01T10:18:11;5.30;65.00
480;DHT22;226;48.606;9.096;2023-02-01T10:20:55;5.40;65.80
480;DHT22;226;48.606;9.096;2023-02-01T10:23:48;5.30;68.80
480;DHT22;226;48.606;9.096;2023-02-01T10:26:21;5.60;69.00
480;DHT22;226;48.606;9.096;2023-02-01T10:28:51;5.50;68.80
480;DHT22;226;48.606;9.096;2023-02-01T10:31:24;5.50;67.60
480;DHT22;226;48.606;9.096;2023-02-01T10:33:57;5.50;66.90
480;DHT22;226;48.606;9.096;2023-02-01T10:36:29;6.90;67.90
480;DHT22;226;48.606;9.096;2023-02-01T10:38:58;5.60;65.30
480;DHT22;226;48.606;9.096;2023-02-01T10:41:32;5.90;66.00
480;DHT22;226;48.606;9.096;2023-02-01T10:46:32;5.70;66.90
480;DHT22;226;48.606;9.096;2023-02-01T10:49:03;7.30;67.60
480;DHT22;226;48.606;9.096;2023-02-01T10:51:41;5.60;66.50
480;DHT22;226;48.606;9.096;2023-02-01T10:54:16;6.10;66.40
480;DHT22;226;48.606;9.096;2023-02-01T10:56:47;5.90;66.80
480;DHT22;226;48.606;9.096;2023-02-01T10:59:20;6.00;66.10
480;DHT22;226;48.606;9.096;2023-02-01T11:01:49;5.50;65.50
480;DHT22;226;48.606;9.096;2023-02-01T11:04:19;5.00;63.80
480;DHT22;226;48.606;9.096;2023-02-01T11:06:49;5.50;66.70
480;DHT22;226;48.606;9.096;2023-02-01T11:09:20;5.70;66.10
480;DHT22;226;48.606;9.096;2023-02-01T11:11:57;5.60;64.10
480;DHT22;226;48.606;9.096;2023-02-01T11:14:36;5.60;63.90
480;DHT22;226;48.606;9.096;2023-02-01T11:17:25;5.70;63.70
480;DHT22;226;48.606;9.096;2023-02-01T11:19:59;5.70;57.60
480;DHT22;226;48.606;9.096;2023-02-01T11:22:28;5.60;61.40
480;DHT22;226;48.606;9.096;2023-02-01T11:24:57;5.20;60.60
480;DHT22;226;48.606;9.096;2023-02-01T11:27:25;5.60;61.20
480;DHT22;226;48.606;9.096;2023-02-01T11:30:00;6.60;60.60
480;DHT22;226;48.606;9.096;2023-02-01T11:32:29;6.10;60.70
480;DHT22;226;48.606;9.096;2023-02-01T11:35:00;5.70;61.60
480;DHT22;226;48.606;9.096;2023-02-01T11:37:33;6.10;61.90
480;DHT22;226;48.606;9.096;2023-02-01T11:40:10;5.70;60.20
480;DHT22;226;48.606;9.096;2023-02-01T11:42:55;5.70;60.20
480;DHT22;226;48.606;9.096;2023-02-01T11:45:27;6.60;61.60
480;DHT22;226;48.606;9.096;2023-02-01T11:47:57;6.90;61.50
480;DHT22;226;48.606;9.096;2023-02-01T11:50:33;5.80;59.50
480;DHT22;226;48.606;9.096;2023-02-01T11:53:13;5.80;60.00
480;DHT22;226;48.606;9.096;2023-02-01T11:55:56;7.40;61.40
480;DHT22;226;48.606;9.096;2023-02-01T11:58:38;5.90;59.80
480;DHT22;226;48.606;9.096;2023-02-01T12:01:21;5.90;59.70
480;DHT22;226;48.606;9.096;2023-02-01T12:04:30;6.70;61.00
480;DHT22;226;48.606;9.096;2023-02-01T12:07:11;5.90;57.20
480;DHT22;226;48.606;9.096;2023-02-01T12:09:51;5.80;60.10
480;DHT22;226;48.606;9.096;2023-02-01T12:12:25;5.80;59.30
480;DHT22;226;48.606;9.096;2023-02-01T12:15:10;5.70;60.00
480;DHT22;226;48.606;9.096;2023-02-01T12:21:06;5.80;59.00
480;DHT22;226;48.606;9.096;2023-02-01T12:23:54;6.00;55.70
480;DHT22;226;48.606;9.096;2023-02-01T12:26:39;5.90;59.10
480;DHT22;226;48.606;9.096;2023-02-01T12:29:21;6.00;55.70
480;DHT22;226;48.606;9.096;2023-02-01T12:32:07;6.30;58.60
480;DHT22;226;48.606;9.096;2023-02-01T12:35:00;5.90;56.90
480;DHT22;226;48.606;9.096;2023-02-01T12:37:46;6.60;58.60
480;DHT22;226;48.606;9.096;2023-02-01T12:40:32;5.70;57.50
480;DHT22;226;48.606;9.096;2023-02-01T12:43:07;5.80;58.00
480;DHT22;226;48.606;9.096;2023-02-01T12:45:39;5.80;57.30
480;DHT22;226;48.606;9.096;2023-02-01T12:48:23;6.10;57.70
480;DHT22;226;48.606;9.096;2023-02-01T12:50:57;5.70;57.10
480;DHT22;226;48.606;9.096;2023-02-01T12:53:35;5.70;57.40
480;DHT22;226;48.606;9.096;2023-02-01T12:56:10;6.00;58.70
480;DHT22;226;48.606;9.096;2023-02-01T12:58:42;5.70;57.30
480;DHT22;226;48.606;9.096;2023-02-01T13:01:18;5.60;57.20
480;DHT22;226;48.606;9.096;2023-02-01T13:03:55;5.70;57.60
480;DHT22;226;48.606;9.096;2023-02-01T13:06:31;7.00;58.90
480;DHT22;226;48.606;9.096;2023-02-01T13:09:03;5.70;56.40
480;DHT22;226;48.606;9.096;2023-02-01T13:11:34;5.70;55.90
480;DHT22;226;48.606;9.096;2023-02-01T13:14:05;5.60;55.90
480;DHT22;226;48.606;9.096;2023-02-01T13:16:41;5.60;56.10
480;DHT22;226;48.606;9.096;2023-02-01T13:19:14;5.80;56.80
480;DHT22;226;48.606;9.096;2023-02-01T13:21:49;5.50;56.50
480;DHT22;226;48.606;9.096;2023-02-01T13:24:30;5.50;56.70
480;DHT22;226;48.606;9.096;2023-02-01T13:27:00;7.30;58.80
480;DHT22;226;48.606;9.096;2023-02-01T13:29:29;5.40;57.60
480;DHT22;226;48.606;9.096;2023-02-01T13:35:34;5.50;54.30
480;DHT22;226;48.606;9.096;2023-02-01T13:41:28;5.50;55.20
480;DHT22;226;48.606;9.096;2023-02-01T13:44:00;6.00;59.40
480;DHT22;226;48.606;9.096;2023-02-01T13:46:29;5.30;59.00
480;DHT22;226;48.606;9.096;2023-02-01T13:49:00;6.00;61.30
480;DHT22;226;48.606;9.096;2023-02-01T13:51:37;5.30;60.00
480;DHT22;226;48.606;9.096;2023-02-01T13:54:05;5.30;60.00
480;DHT22;226;48.606;9.096;2023-02-01T13:56:43;5.40;59.90
480;DHT22;226;48.606;9.096;2023-02-01T13:59:49;5.40;59.80
480;DHT22;226;48.606;9.096;2023-02-01T14:08:41;5.80;56.00
480;DHT22;226;48.606;9.096;2023-02-01T14:11:32;5.70;55.70
480;DHT22;226;48.606;9.096;2023-02-01T14:17:40;5.90;55.60
480;DHT22;226;48.606;9.096;2023-02-01T14:23:24;5.70;57.50
480;DHT22;226;48.606;9.096;2023-02-01T14:26:06;5.60;56.30
480;DHT22;226;48.606;9.096;2023-02-01T14:28:39;6.50;60.20
480;DHT22;226;48.606;9.096;2023-02-01T14:34:18;5.60;56.60
480;DHT22;226;48.606;9.096;2023-02-01T14:36:50;5.50;56.10
480;DHT22;226;48.606;9.096;2023-02-01T14:39:22;5.30;59.60
480;DHT22;226;48.606;9.096;2023-02-01T14:41:54;5.30;59.50
480;DHT22;226;48.606;9.096;2023-02-01T14:44:31;5.30;59.60
480;DHT22;226;48.606;9.096;2023-02-01T14:47:25;6.00;60.50
480;DHT22;226;48.606;9.096;2023-02-01T14:49:58;5.40;59.30
480;DHT22;226;48.606;9.096;2023-02-01T14:52:34;5.40;59.30
480;DHT22;226;48.606;9.096;2023-02-01T14:55:09;6.10;61.00
480;DHT22;226;48.606;9.096;2023-02-01T14:57:40;5.50;60.80
480;DHT22;226;48.606;9.096;2023-02-01T15:00:19;6.30;61.30
480;DHT22;226;48.606;9.096;2023-02-01T15:02:48;6.50;61.00
480;DHT22;226;48.606;9.096;2023-02-01T15:05:28;5.40;59.80
480;DHT22;226;48.606;9.096;2023-02-01T15:08:05;5.40;59.70
480;DHT22;226;48.606;9.096;2023-02-01T15:10:42;5.60;60.60
480;DHT22;226;48.606;9.096;2023-02-01T15:13:22;5.80;61.10
480;DHT22;226;48.606;9.096;2023-02-01T15:16:01;5.90;61.10
480;DHT22;226;48.606;9.096;2023-02-01T15:18:29;5.50;60.10
480;DHT22;226;48.606;9.096;2023-02-01T15:21:00;5.80;60.00
480;DHT22;226;48.606;9.096;2023-02-01T15:23:48;6.50;61.20
480;DHT22;226;48.606;9.096;2023-02-01T15:26:25;5.40;58.80
480;DHT22;226;48.606;9.096;2023-02-01T15:28:53;6.70;60.90
480;DHT22;226;48.606;9.096;2023-02-01T15:31:35;5.60;58.80
480;DHT22;226;48.606;9.096;2023-02-01T15:34:03;6.60;60.50
480;DHT22;226;48.606;9.096;2023-02-01T15:36:33;5.60;59.30
480;DHT22;226;48.606;9.096;2023-02-01T15:39:20;5.50;54.70
480;DHT22;226;48.606;9.096;2023-02-01T15:41:54;6.10;59.80
480;DHT22;226;48.606;9.096;2023-02-01T15:44:30;5.80;60.70
480;DHT22;226;48.606;9.096;2023-02-01T15:47:05;6.00;61.30
480;DHT22;226;48.606;9.096;2023-02-01T15:49:38;6.40;63.00
480;DHT22;226;48.606;9.096;2023-02-01T15:52:20;6.10;62.60
480;DHT22;226;48.606;9.096;2023-02-01T15:54:51;5.70;61.80
480;DHT22;226;48.606;9.096;2023-02-01T15:57:22;5.70;61.20
480;DHT22;226;48.606;9.096;2023-02-01T15:59:57;5.30;60.50
480;DHT22;226;48.606;9.096;2023-02-01T16:02:28;5.30;60.60
480;DHT22;226;48.606;9.096;2023-02-01T16:15:05;5.30;74.50
480;DHT22;226;48.606;9.096;2023-02-01T16:17:34;5.30;74.40
480;DHT22;226;48.606;9.096;2023-02-01T16:20:02;5.30;74.00
480;DHT22;226;48.606;9.096;2023-02-01T16:22:31;5.30;73.40
480;DHT22;226;48.606;9.096;2023-02-01T16:25:00;5.30;72.10
480;DHT22;226;48.606;9.096;2023-02-01T16:27:28;5.40;71.70
480;DHT22;226;48.606;9.096;2023-02-01T16:29:56;5.30;71.30
480;DHT22;226;48.606;9.096;2023-02-01T16:32:24;5.20;71.00
480;DHT22;226;48.606;9.096;2023-02-01T16:34:53;5.30;70.80
480;DHT22;226;48.606;9.096;2023-02-01T16:37:22;5.40;70.80
480;DHT22;226;48.606;9.096;2023-02-01T16:39:52;5.20;69.90
480;DHT22;226;48.606;9.096;2023-02-01T16:42:20;5.10;69.10
480;DHT22;226;48.606;9.096;2023-02-01T16:44:50;5.30;67.20
480;DHT22;226;48.606;9.096;2023-02-01T16:47:19;5.30;68.20
480;DHT22;226;48.606;9.096;2023-02-01T16:49:49;5.20;68.40
480;DHT22;226;48.606;9.096;2023-02-01T16:52:20;5.30;67.80
480;DHT22;226;48.606;9.096;2023-02-01T16:54:48;5.30;67.50
480;DHT22;226;48.606;9.096;2023-02-01T16:57:19;5.30;67.90
480;DHT22;226;48.606;9.096;2023-02-01T16:59:49;5.30;67.30
480;DHT22;226;48.606;9.096;2023-02-01T17:02:19;5.40;67.40
480;DHT22;226;48.606;9.096;2023-02-01T17:04:48;5.40;67.20
480;DHT22;226;48.606;9.096;2023-02-01T17:07:18;5.50;67.60
480;DHT22;226;48.606;9.096;2023-02-01T17:09:46;5.30;66.90
480;DHT22;226;48.606;9.096;2023-02-01T17:12:22;5.40;66.70
480;DHT22;226;48.606;9.096;2023-02-01T17:14:51;4.80;67.00
480;DHT22;226;48.606;9.096;2023-02-01T17:17:20;5.30;67.00
480;DHT22;226;48.606;9.096;2023-02-01T17:20:04;5.30;66.70
480;DHT22;226;48.606;9.096;2023-02-01T17:22:33;5.20;67.10
480;DHT22;226;48.606;9.096;2023-02-01T17:25:01;5.20;67.00
480;DHT22;226;48.606;9.096;2023-02-01T17:27:32;5.10;66.60
480;DHT22;226;48.606;9.096;2023-02-01T17:30:01;5.40;67.00
480;DHT22;226;48.606;9.096;2023-02-01T17:32:30;4.80;66.70
480;DHT22;226;48.606;9.096;2023-02-01T17:34:58;5.10;67.80
480;DHT22;226;48.606;9.096;2023-02-01T17:37:30;5.20;67.80
480;DHT22;226;48.606;9.096;2023-02-01T17:39:59;5.10;67.50
480;DHT22;226;48.606;9.096;2023-02-01T17:45:00;5.10;67.70
480;DHT22;226;48.606;9.096;2023-02-01T17:47:29;5.00;68.00
480;DHT22;226;48.606;9.096;2023-02-01T17:49:57;5.00;67.60
480;DHT22;226;48.606;9.096;2023-02-01T17:52:25;5.00;67.80
480;DHT22;226;48.606;9.096;2023-02-01T17:54:54;5.00;68.00
480;DHT22;226;48.606;9.096;2023-02-01T17:57:22;5.00;68.60
480;DHT22;226;48.606;9.096;2023-02-01T17:59:50;5.00;68.20
480;DHT22;226;48.606;9.096;2023-02-01T18:02:21;5.00;67.60
480;DHT22;226;48.606;9.096;2023-02-01T18:04:50;5.20;68.20
480;DHT22;226;48.606;9.096;2023-02-01T18:07:18;5.00;67.90
480;DHT22;226;48.606;9.096;2023-02-01T18:09:46;4.10;67.20
480;DHT22;226;48.606;9.096;2023-02-01T18:12:17;4.80;68.30
480;DHT22;226;48.606;9.096;2023-02-01T18:14:46;4.80;68.70
480;DHT22;226;48.606;9.096;2023-02-01T18:17:15;4.70;69.00
480;DHT22;226;48.606;9.096;2023-02-01T18:19:44;4.50;68.50
480;DHT22;226;48.606;9.096;2023-02-01T18:22:15;4.80;68.40
480;DHT22;226;48.606;9.096;2023-02-01T18:24:43;4.70;68.80
480;DHT22;226;48.606;9.096;2023-02-01T18:27:11;4.70;68.80